Isabella — 9HSL7 — position and weather

sailwx.info

Track history (hours):
 
Tides and Currents Weather Stations Pressure Air Temp Water Temp Dewpoint Dewpoint Depression Visibility Wind Speed Wind Dir Waves Ship Positions

Isabella

Last reported at 2016-Jul-24 06:33 UTC. Time now 2016-Jul-24 06:48 UTC.
Position N 55°33' E 015°16'.

Length 244 m; draft 8 m.

Type: Tanker. MMSI: 215545000.

Date/timePositionNaut miles runAvg speedWind from/ knotsBaromVisibWave heightAir tempDewpointWater temp
2016-Jul-24 06:33N 55°33' E 015°16'1010.3
2016-Jul-24 05:33N 55°28' E 014°60'1010.2
2016-Jul-24 04:33N 55°24' E 014°43'1010.0
2016-Jul-24 03:34N 55°17' E 014°32'1010.2
2016-Jul-24 02:33N 55°09' E 014°20'1010.0
2016-Jul-24 01:34N 55°01' E 014°09'10 9.9
2016-Jul-24 00:34N 54°58' E 013°53'1010.0
2016-Jul-23 23:33N 54°55' E 013°36'10 9.8
2016-Jul-23 22:33N 54°52' E 013°20'10 9.8
2016-Jul-23 21:33N 54°49' E 013°04'10 9.7
2016-Jul-23 20:34N 54°46' E 012°48'9 9.4
2016-Jul-23 19:33N 54°41' E 012°34'9 9.0
2016-Jul-23 18:33N 54°36' E 012°21'10 9.7
2016-Jul-23 17:34N 54°27' E 012°12'1110.7
2016-Jul-23 16:34N 54°25' E 011°55'1211.8
2016-Jul-23 15:33N 54°28' E 011°35'1211.9
2016-Jul-23 14:33N 54°33' E 011°17'1111.4
2016-Jul-23 13:34N 54°39' E 010°60'1010.1
2016-Jul-23 12:34N 54°48' E 010°52'1010.1
2016-Jul-23 11:34N 54°57' E 010°58'1110.8
2016-Jul-23 10:33N 55°08' E 011°03'10 8.7
2016-Jul-23 09:26N 55°18' E 011°03'910.5
2016-Jul-23 08:34N 55°26' E 010°57'1311.2
2016-Jul-23 07:26N 55°38' E 010°47'910.8
2016-Jul-23 06:33N 55°47' E 010°48'2211.1
2016-Jul-23 04:33N 56°07' E 011°05'1212.1
2016-Jul-23 03:33N 56°19' E 011°06'9 8.7
2016-Jul-23 02:33N 56°27' E 011°11'10 9.7
2016-Jul-23 01:33N 56°33' E 011°25'14 9.9
2016-Jul-23 00:09N 56°42' E 011°44'6 9.5
2016-Jul-22 23:34N 56°46' E 011°52'1010.2
2016-Jul-22 22:34N 56°55' E 011°46'1010.5
2016-Jul-22 21:34N 57°05' E 011°39'1010.5
2016-Jul-22 20:34N 57°15' E 011°33'1010.2
2016-Jul-22 19:33N 57°25' E 011°27'10 9.9
2016-Jul-22 18:34N 57°32' E 011°15'1010.1
2016-Jul-22 17:34N 57°39' E 011°01'1010.1
2016-Jul-22 16:33N 57°46' E 010°47'10 9.7
2016-Jul-22 15:34N 57°48' E 010°29'9 9.4
2016-Jul-22 14:33N 57°48' E 010°12'1010.2
2016-Jul-22 13:33N 57°47' E 009°52'1010.1
2016-Jul-22 12:34N 57°45' E 009°34'1010.1
2016-Jul-22 11:33N 57°40' E 009°18'241 9.9
2016-Jul-21 11:14N 54°27' E 004°59'710.1
2016-Jul-21 10:33N 54°21' E 004°53'1110.4
2016-Jul-21 09:32N 54°12' E 004°43'1110.3
2016-Jul-21 08:28N 54°01' E 004°38'1010.3
2016-Jul-21 07:33N 53°53' E 004°32'1310.7
2016-Jul-21 06:19N 53°44' E 004°15'1010.7
2016-Jul-21 05:25N 53°38' E 004°02'2310.4
2016-Jul-21 03:11N 53°20' E 003°38'911.0
2016-Jul-21 02:24N 53°12' E 003°32'910.5
2016-Jul-21 01:33N 53°04' E 003°26'1010.1
2016-Jul-21 00:33N 52°54' E 003°20'37 7.3
2016-Jul-20 19:34N 52°18' E 003°21'9 9.5
2016-Jul-20 18:33N 52°12' E 003°33'2 2.2
2016-Jul-20 17:32N 52°11' E 003°36'0 0.0
2016-Jul-20 16:29N 52°11' E 003°36'0 0.0
2016-Jul-20 15:32N 52°11' E 003°36'0 0.0
2016-Jul-20 14:23N 52°11' E 003°36'0 0.0
2016-Jul-20 13:23N 52°11' E 003°36'0 0.0
2016-Jul-20 12:26N 52°11' E 003°36'0 0.2
2016-Jul-20 11:11N 52°11' E 003°36'0 0.0
2016-Jul-20 09:32N 52°11' E 003°36'0 0.0
2016-Jul-20 08:20N 52°11' E 003°36'0 0.0
2016-Jul-20 07:29N 52°11' E 003°36'0 0.1
2016-Jul-20 06:29N 52°11' E 003°36'0 0.1
2016-Jul-20 04:29N 52°11' E 003°36'0 0.0
2016-Jul-20 03:32N 52°11' E 003°36'0 0.0
2016-Jul-20 02:29N 52°11' E 003°36'0 0.0
2016-Jul-20 01:20N 52°11' E 003°36'0 0.1
2016-Jul-20 00:26N 52°11' E 003°36'0 0.1
2016-Jul-19 23:29N 52°11' E 003°36'0 0.1
2016-Jul-19 22:29N 52°11' E 003°36'0 0.0
2016-Jul-19 19:20N 52°10' E 003°36'0 0.0
2016-Jul-19 18:32N 52°10' E 003°36'0 0.0
2016-Jul-19 17:32N 52°11' E 003°36'0 0.2
2016-Jul-19 16:32N 52°11' E 003°36'0 0.0
2016-Jul-19 14:23N 52°11' E 003°36'0 0.1
2016-Jul-19 12:23N 52°11' E 003°36'0 0.1
2016-Jul-19 11:29N 52°11' E 003°36'0 0.0
2016-Jul-19 10:29N 52°11' E 003°36'0 0.0
2016-Jul-19 09:23N 52°11' E 003°36'0 0.0
2016-Jul-19 08:32N 52°11' E 003°36'0 0.0
2016-Jul-19 07:26N 52°11' E 003°36'0 0.1
2016-Jul-19 04:26N 52°11' E 003°36'0 0.1
2016-Jul-19 03:32N 52°11' E 003°36'0 0.0
2016-Jul-19 02:29N 52°11' E 003°36'0 0.0
2016-Jul-19 01:32N 52°11' E 003°36'0 0.0
2016-Jul-19 00:32N 52°11' E 003°36'0 0.1
2016-Jul-18 23:32N 52°11' E 003°36'0 0.2
2016-Jul-18 22:32N 52°11' E 003°36'0 0.0
2016-Jul-18 21:29N 52°11' E 003°36'0 0.0
2016-Jul-18 20:26N 52°11' E 003°36'0 0.0
2016-Jul-18 19:32N 52°11' E 003°36'0 0.0
2016-Jul-18 18:32N 52°10' E 003°36'0 0.0
2016-Jul-18 17:32N 52°11' E 003°36'0 0.2
2016-Jul-18 16:29N 52°11' E 003°36'0 0.0
2016-Jul-18 15:32N 52°11' E 003°36'0 0.0
2016-Jul-18 14:23N 52°11' E 003°36'0 0.0
2016-Jul-18 13:32N 52°11' E 003°36'0 0.0
2016-Jul-18 12:32N 52°11' E 003°36'0 0.2
2016-Jul-18 11:32N 52°11' E 003°36'0 0.1
2016-Jul-18 10:32N 52°10' E 003°36'0 0.0
2016-Jul-18 09:32N 52°10' E 003°36'0 0.0
2016-Jul-18 08:29N 52°10' E 003°36'0 0.0
2016-Jul-18 07:32N 52°10' E 003°36'0 0.0
2016-Jul-18 06:29N 52°10' E 003°36'0 0.1
2016-Jul-18 05:29N 52°10' E 003°36'0 0.2
2016-Jul-18 04:32N 52°11' E 003°36'0 0.1
2016-Jul-18 03:32N 52°11' E 003°36'0 0.0
2016-Jul-18 02:11N 52°11' E 003°36'0 0.0
2016-Jul-18 01:29N 52°11' E 003°36'0 0.0
2016-Jul-17 23:29N 52°11' E 003°36'0 0.3
2016-Jul-17 22:32N 52°11' E 003°36'0 0.0
2016-Jul-17 21:23N 52°10' E 003°36'0 0.0
2016-Jul-17 20:32N 52°10' E 003°36'0 0.0
2016-Jul-17 19:32N 52°10' E 003°36'0 0.0
2016-Jul-17 18:32N 52°10' E 003°36'0 0.1
2016-Jul-17 16:11N 52°11' E 003°36'0 0.0
2016-Jul-17 15:29N 52°11' E 003°36'0 0.0
2016-Jul-17 14:29N 52°11' E 003°36'0 0.0
2016-Jul-17 11:29N 52°11' E 003°36'0 0.0
2016-Jul-17 10:29N 52°11' E 003°36'0 0.3
2016-Jul-17 09:32N 52°10' E 003°36'0 0.0
2016-Jul-17 08:32N 52°10' E 003°36'0 0.0
2016-Jul-17 07:26N 52°10' E 003°36'0 0.0
2016-Jul-17 06:29N 52°10' E 003°36'0 0.1
2016-Jul-17 04:32N 52°11' E 003°36'0 0.0
2016-Jul-17 03:23N 52°11' E 003°36'0 0.0
2016-Jul-16 20:17N 52°11' E 003°36'0 0.1
2016-Jul-16 19:29N 52°11' E 003°36'0 0.1
2016-Jul-16 18:29N 52°10' E 003°36'0 0.1
2016-Jul-16 16:32N 52°11' E 003°36'0 0.0
2016-Jul-16 15:23N 52°11' E 003°36'0 0.0
2016-Jul-16 06:20N 52°11' E 003°36'0 0.0
2016-Jul-16 00:32N 52°11' E 003°36'0 0.0
2016-Jul-15 23:29N 52°11' E 003°36'0 0.0
2016-Jul-15 20:08N 52°11' E 003°36'0 0.1
2016-Jul-15 19:11N 52°11' E 003°36'0 0.1
2016-Jul-15 18:23N 52°11' E 003°36'0 0.0
2016-Jul-15 16:32N 52°10' E 003°36'0 0.0
2016-Jul-15 12:05N 52°11' E 003°36'0 0.0
2016-Jul-15 11:29N 52°11' E 003°36'0 0.0
2016-Jul-15 10:32N 52°11' E 003°36'0 0.0
2016-Jul-15 09:29N 52°11' E 003°36'0 0.1
2016-Jul-15 08:32N 52°10' E 003°36'0 0.0
2016-Jul-15 07:32N 52°10' E 003°36'0 0.1
2016-Jul-15 06:23N 52°10' E 003°36'0 0.0
2016-Jul-15 03:11N 52°10' E 003°36'0 0.0
2016-Jul-15 01:17N 52°10' E 003°36'0 0.0
2016-Jul-14 19:29N 52°10' E 003°36'0 0.0
2016-Jul-14 17:32N 52°10' E 003°36'0 0.0
2016-Jul-14 16:14N 52°10' E 003°36'0 0.0
2016-Jul-14 15:26N 52°10' E 003°36'0 0.0
2016-Jul-14 14:29N 52°10' E 003°36'  
Track history (hours):
 
Tides and Currents Weather Stations Pressure Air Temp Water Temp Dewpoint Dewpoint Depression Visibility Wind Speed Wind Dir Waves Ship Positions

Isabella

Last reported at 2016-Jul-24 06:33 UTC. Time now 2016-Jul-24 06:48 UTC.
Position N 55°33' E 015°16'.

Length 244 m; draft 8 m.

Type: Tanker. MMSI: 215545000.

Date/timePositionNaut miles runAvg speedWind from/ knotsBaromVisibWave heightAir tempDewpointWater temp
2016-Jul-24 06:33N 55°33' E 015°16'1010.3
2016-Jul-24 05:33N 55°28' E 014°60'1010.2
2016-Jul-24 04:33N 55°24' E 014°43'1010.0
2016-Jul-24 03:34N 55°17' E 014°32'1010.2
2016-Jul-24 02:33N 55°09' E 014°20'1010.0
2016-Jul-24 01:34N 55°01' E 014°09'10 9.9
2016-Jul-24 00:34N 54°58' E 013°53'1010.0
2016-Jul-23 23:33N 54°55' E 013°36'10 9.8
2016-Jul-23 22:33N 54°52' E 013°20'10 9.8
2016-Jul-23 21:33N 54°49' E 013°04'10 9.7
2016-Jul-23 20:34N 54°46' E 012°48'9 9.4
2016-Jul-23 19:33N 54°41' E 012°34'9 9.0
2016-Jul-23 18:33N 54°36' E 012°21'10 9.7
2016-Jul-23 17:34N 54°27' E 012°12'1110.7
2016-Jul-23 16:34N 54°25' E 011°55'1211.8
2016-Jul-23 15:33N 54°28' E 011°35'1211.9
2016-Jul-23 14:33N 54°33' E 011°17'1111.4
2016-Jul-23 13:34N 54°39' E 010°60'1010.1
2016-Jul-23 12:34N 54°48' E 010°52'1010.1
2016-Jul-23 11:34N 54°57' E 010°58'1110.8
2016-Jul-23 10:33N 55°08' E 011°03'10 8.7
2016-Jul-23 09:26N 55°18' E 011°03'910.5
2016-Jul-23 08:34N 55°26' E 010°57'1311.2
2016-Jul-23 07:26N 55°38' E 010°47'910.8
2016-Jul-23 06:33N 55°47' E 010°48'2211.1
2016-Jul-23 04:33N 56°07' E 011°05'1212.1
2016-Jul-23 03:33N 56°19' E 011°06'9 8.7
2016-Jul-23 02:33N 56°27' E 011°11'10 9.7
2016-Jul-23 01:33N 56°33' E 011°25'14 9.9
2016-Jul-23 00:09N 56°42' E 011°44'6 9.5
2016-Jul-22 23:34N 56°46' E 011°52'1010.2
2016-Jul-22 22:34N 56°55' E 011°46'1010.5
2016-Jul-22 21:34N 57°05' E 011°39'1010.5
2016-Jul-22 20:34N 57°15' E 011°33'1010.2
2016-Jul-22 19:33N 57°25' E 011°27'10 9.9
2016-Jul-22 18:34N 57°32' E 011°15'1010.1
2016-Jul-22 17:34N 57°39' E 011°01'1010.1
2016-Jul-22 16:33N 57°46' E 010°47'10 9.7
2016-Jul-22 15:34N 57°48' E 010°29'9 9.4
2016-Jul-22 14:33N 57°48' E 010°12'1010.2
2016-Jul-22 13:33N 57°47' E 009°52'1010.1
2016-Jul-22 12:34N 57°45' E 009°34'1010.1
2016-Jul-22 11:33N 57°40' E 009°18'241 9.9
2016-Jul-21 11:14N 54°27' E 004°59'710.1
2016-Jul-21 10:33N 54°21' E 004°53'1110.4
2016-Jul-21 09:32N 54°12' E 004°43'1110.3
2016-Jul-21 08:28N 54°01' E 004°38'1010.3
2016-Jul-21 07:33N 53°53' E 004°32'1310.7
2016-Jul-21 06:19N 53°44' E 004°15'1010.7
2016-Jul-21 05:25N 53°38' E 004°02'2310.4
2016-Jul-21 03:11N 53°20' E 003°38'911.0
2016-Jul-21 02:24N 53°12' E 003°32'910.5
2016-Jul-21 01:33N 53°04' E 003°26'1010.1
2016-Jul-21 00:33N 52°54' E 003°20'37 7.3
2016-Jul-20 19:34N 52°18' E 003°21'9 9.5
2016-Jul-20 18:33N 52°12' E 003°33'2 2.2
2016-Jul-20 17:32N 52°11' E 003°36'0 0.0
2016-Jul-20 16:29N 52°11' E 003°36'0 0.0
2016-Jul-20 15:32N 52°11' E 003°36'0 0.0
2016-Jul-20 14:23N 52°11' E 003°36'0 0.0
2016-Jul-20 13:23N 52°11' E 003°36'0 0.0
2016-Jul-20 12:26N 52°11' E 003°36'0 0.2
2016-Jul-20 11:11N 52°11' E 003°36'0 0.0
2016-Jul-20 09:32N 52°11' E 003°36'0 0.0
2016-Jul-20 08:20N 52°11' E 003°36'0 0.0
2016-Jul-20 07:29N 52°11' E 003°36'0 0.1
2016-Jul-20 06:29N 52°11' E 003°36'0 0.1
2016-Jul-20 04:29N 52°11' E 003°36'0 0.0
2016-Jul-20 03:32N 52°11' E 003°36'0 0.0
2016-Jul-20 02:29N 52°11' E 003°36'0 0.0
2016-Jul-20 01:20N 52°11' E 003°36'0 0.1
2016-Jul-20 00:26N 52°11' E 003°36'0 0.1
2016-Jul-19 23:29N 52°11' E 003°36'0 0.1
2016-Jul-19 22:29N 52°11' E 003°36'0 0.0
2016-Jul-19 19:20N 52°10' E 003°36'0 0.0
2016-Jul-19 18:32N 52°10' E 003°36'0 0.0
2016-Jul-19 17:32N 52°11' E 003°36'0 0.2
2016-Jul-19 16:32N 52°11' E 003°36'0 0.0
2016-Jul-19 14:23N 52°11' E 003°36'0 0.1
2016-Jul-19 12:23N 52°11' E 003°36'0 0.1
2016-Jul-19 11:29N 52°11' E 003°36'0 0.0
2016-Jul-19 10:29N 52°11' E 003°36'0 0.0
2016-Jul-19 09:23N 52°11' E 003°36'0 0.0
2016-Jul-19 08:32N 52°11' E 003°36'0 0.0
2016-Jul-19 07:26N 52°11' E 003°36'0 0.1
2016-Jul-19 04:26N 52°11' E 003°36'0 0.1
2016-Jul-19 03:32N 52°11' E 003°36'0 0.0
2016-Jul-19 02:29N 52°11' E 003°36'0 0.0
2016-Jul-19 01:32N 52°11' E 003°36'0 0.0
2016-Jul-19 00:32N 52°11' E 003°36'0 0.1
2016-Jul-18 23:32N 52°11' E 003°36'0 0.2
2016-Jul-18 22:32N 52°11' E 003°36'0 0.0
2016-Jul-18 21:29N 52°11' E 003°36'0 0.0
2016-Jul-18 20:26N 52°11' E 003°36'0 0.0
2016-Jul-18 19:32N 52°11' E 003°36'0 0.0
2016-Jul-18 18:32N 52°10' E 003°36'0 0.0
2016-Jul-18 17:32N 52°11' E 003°36'0 0.2
2016-Jul-18 16:29N 52°11' E 003°36'0 0.0
2016-Jul-18 15:32N 52°11' E 003°36'0 0.0
2016-Jul-18 14:23N 52°11' E 003°36'0 0.0
2016-Jul-18 13:32N 52°11' E 003°36'0 0.0
2016-Jul-18 12:32N 52°11' E 003°36'0 0.2
2016-Jul-18 11:32N 52°11' E 003°36'0 0.1
2016-Jul-18 10:32N 52°10' E 003°36'0 0.0
2016-Jul-18 09:32N 52°10' E 003°36'0 0.0
2016-Jul-18 08:29N 52°10' E 003°36'0 0.0
2016-Jul-18 07:32N 52°10' E 003°36'0 0.0
2016-Jul-18 06:29N 52°10' E 003°36'0 0.1
2016-Jul-18 05:29N 52°10' E 003°36'0 0.2
2016-Jul-18 04:32N 52°11' E 003°36'0 0.1
2016-Jul-18 03:32N 52°11' E 003°36'0 0.0
2016-Jul-18 02:11N 52°11' E 003°36'0 0.0
2016-Jul-18 01:29N 52°11' E 003°36'0 0.0
2016-Jul-17 23:29N 52°11' E 003°36'0 0.3
2016-Jul-17 22:32N 52°11' E 003°36'0 0.0
2016-Jul-17 21:23N 52°10' E 003°36'0 0.0
2016-Jul-17 20:32N 52°10' E 003°36'0 0.0
2016-Jul-17 19:32N 52°10' E 003°36'0 0.0
2016-Jul-17 18:32N 52°10' E 003°36'0 0.1
2016-Jul-17 16:11N 52°11' E 003°36'0 0.0
2016-Jul-17 15:29N 52°11' E 003°36'0 0.0
2016-Jul-17 14:29N 52°11' E 003°36'0 0.0
2016-Jul-17 11:29N 52°11' E 003°36'0 0.0
2016-Jul-17 10:29N 52°11' E 003°36'0 0.3
2016-Jul-17 09:32N 52°10' E 003°36'0 0.0
2016-Jul-17 08:32N 52°10' E 003°36'0 0.0
2016-Jul-17 07:26N 52°10' E 003°36'0 0.0
2016-Jul-17 06:29N 52°10' E 003°36'0 0.1
2016-Jul-17 04:32N 52°11' E 003°36'0 0.0
2016-Jul-17 03:23N 52°11' E 003°36'0 0.0
2016-Jul-16 20:17N 52°11' E 003°36'0 0.1
2016-Jul-16 19:29N 52°11' E 003°36'0 0.1
2016-Jul-16 18:29N 52°10' E 003°36'0 0.1
2016-Jul-16 16:32N 52°11' E 003°36'0 0.0
2016-Jul-16 15:23N 52°11' E 003°36'0 0.0
2016-Jul-16 06:20N 52°11' E 003°36'0 0.0
2016-Jul-16 00:32N 52°11' E 003°36'0 0.0
2016-Jul-15 23:29N 52°11' E 003°36'0 0.0
2016-Jul-15 20:08N 52°11' E 003°36'0 0.1
2016-Jul-15 19:11N 52°11' E 003°36'0 0.1
2016-Jul-15 18:23N 52°11' E 003°36'0 0.0
2016-Jul-15 16:32N 52°10' E 003°36'0 0.0
2016-Jul-15 12:05N 52°11' E 003°36'0 0.0
2016-Jul-15 11:29N 52°11' E 003°36'0 0.0
2016-Jul-15 10:32N 52°11' E 003°36'0 0.0
2016-Jul-15 09:29N 52°11' E 003°36'0 0.1
2016-Jul-15 08:32N 52°10' E 003°36'0 0.0
2016-Jul-15 07:32N 52°10' E 003°36'0 0.1
2016-Jul-15 06:23N 52°10' E 003°36'0 0.0
2016-Jul-15 03:11N 52°10' E 003°36'0 0.0
2016-Jul-15 01:17N 52°10' E 003°36'0 0.0
2016-Jul-14 19:29N 52°10' E 003°36'0 0.0
2016-Jul-14 17:32N 52°10' E 003°36'0 0.0
2016-Jul-14 16:14N 52°10' E 003°36'0 0.0
2016-Jul-14 15:26N 52°10' E 003°36'0 0.0
2016-Jul-14 14:29N 52°10' E 003°36'  

Dump ship's entire track history